sensor_id;sensor_type;location;lat;lon;timestamp;P1;durP1;ratioP1;P2;durP2;ratioP2
84244;SDS011;74383;44.552;18.100;2023-12-20T00:00:52;129.50;;;59.05;;
84244;SDS011;74383;44.552;18.100;2023-12-20T00:03:17;100.60;;;49.50;;
84244;SDS011;74383;44.552;18.100;2023-12-20T00:05:43;77.97;;;39.60;;
84244;SDS011;74383;44.552;18.100;2023-12-20T00:08:08;72.80;;;36.78;;
84244;SDS011;74383;44.552;18.100;2023-12-20T00:10:35;100.18;;;50.33;;
84244;SDS011;74383;44.552;18.100;2023-12-20T00:13:00;104.90;;;50.85;;
84244;SDS011;74383;44.552;18.100;2023-12-20T00:15:26;90.00;;;43.42;;
84244;SDS011;74383;44.552;18.100;2023-12-20T00:17:51;83.78;;;39.60;;
84244;SDS011;74383;44.552;18.100;2023-12-20T00:20:17;77.70;;;38.28;;
84244;SDS011;74383;44.552;18.100;2023-12-20T00:22:42;95.10;;;45.70;;
84244;SDS011;74383;44.552;18.100;2023-12-20T00:25:08;91.95;;;46.08;;
84244;SDS011;74383;44.552;18.100;2023-12-20T00:27:33;92.45;;;45.35;;
84244;SDS011;74383;44.552;18.100;2023-12-20T00:29:59;95.07;;;45.97;;
84244;SDS011;74383;44.552;18.100;2023-12-20T00:32:25;91.15;;;44.17;;
84244;SDS011;74383;44.552;18.100;2023-12-20T00:34:50;93.07;;;45.90;;
84244;SDS011;74383;44.552;18.100;2023-12-20T00:37:16;94.47;;;46.17;;
84244;SDS011;74383;44.552;18.100;2023-12-20T00:39:41;86.70;;;43.65;;
84244;SDS011;74383;44.552;18.100;2023-12-20T00:42:07;91.72;;;46.22;;
84244;SDS011;74383;44.552;18.100;2023-12-20T00:44:33;94.93;;;45.88;;
84244;SDS011;74383;44.552;18.100;2023-12-20T00:46:58;93.90;;;45.17;;
84244;SDS011;74383;44.552;18.100;2023-12-20T00:49:24;90.63;;;42.30;;
84244;SDS011;74383;44.552;18.100;2023-12-20T00:51:49;89.57;;;41.85;;
84244;SDS011;74383;44.552;18.100;2023-12-20T00:54:15;92.70;;;43.47;;
84244;SDS011;74383;44.552;18.100;2023-12-20T00:56:41;89.07;;;42.80;;
84244;SDS011;74383;44.552;18.100;2023-12-20T00:59:07;94.05;;;42.78;;
84244;SDS011;74383;44.552;18.100;2023-12-20T01:01:32;93.97;;;43.15;;
84244;SDS011;74383;44.552;18.100;2023-12-20T01:04:19;80.40;;;39.00;;
84244;SDS011;74383;44.552;18.100;2023-12-20T01:07:10;84.20;;;39.88;;
84244;SDS011;74383;44.552;18.100;2023-12-20T01:09:36;81.95;;;39.25;;
84244;SDS011;74383;44.552;18.100;2023-12-20T01:12:01;82.47;;;37.08;;
84244;SDS011;74383;44.552;18.100;2023-12-20T01:14:27;89.05;;;40.05;;
84244;SDS011;74383;44.552;18.100;2023-12-20T01:16:53;83.65;;;39.67;;
84244;SDS011;74383;44.552;18.100;2023-12-20T01:19:18;77.80;;;38.42;;
84244;SDS011;74383;44.552;18.100;2023-12-20T01:21:44;84.65;;;36.63;;
84244;SDS011;74383;44.552;18.100;2023-12-20T01:24:09;80.22;;;38.17;;
84244;SDS011;74383;44.552;18.100;2023-12-20T01:26:35;83.90;;;38.05;;
84244;SDS011;74383;44.552;18.100;2023-12-20T01:29:00;71.95;;;36.45;;
84244;SDS011;74383;44.552;18.100;2023-12-20T01:31:44;79.80;;;38.55;;
84244;SDS011;74383;44.552;18.100;2023-12-20T01:34:10;83.45;;;37.55;;
84244;SDS011;74383;44.552;18.100;2023-12-20T01:36:36;88.45;;;39.05;;
84244;SDS011;74383;44.552;18.100;2023-12-20T01:39:01;85.90;;;37.15;;
84244;SDS011;74383;44.552;18.100;2023-12-20T01:41:27;83.00;;;38.50;;
84244;SDS011;74383;44.552;18.100;2023-12-20T01:43:52;78.47;;;37.47;;
84244;SDS011;74383;44.552;18.100;2023-12-20T01:46:19;85.45;;;36.55;;
84244;SDS011;74383;44.552;18.100;2023-12-20T01:48:46;73.32;;;33.72;;
84244;SDS011;74383;44.552;18.100;2023-12-20T01:51:37;84.80;;;37.72;;
84244;SDS011;74383;44.552;18.100;2023-12-20T01:54:27;82.43;;;37.17;;
84244;SDS011;74383;44.552;18.100;2023-12-20T01:57:17;82.35;;;36.83;;
84244;SDS011;74383;44.552;18.100;2023-12-20T02:00:09;88.78;;;37.28;;
84244;SDS011;74383;44.552;18.100;2023-12-20T02:02:38;78.57;;;36.38;;
84244;SDS011;74383;44.552;18.100;2023-12-20T02:05:23;74.28;;;34.70;;
84244;SDS011;74383;44.552;18.100;2023-12-20T02:07:50;67.28;;;31.50;;
84244;SDS011;74383;44.552;18.100;2023-12-20T02:10:16;76.18;;;33.85;;
84244;SDS011;74383;44.552;18.100;2023-12-20T02:12:42;69.80;;;34.30;;
84244;SDS011;74383;44.552;18.100;2023-12-20T02:15:33;70.85;;;33.55;;
84244;SDS011;74383;44.552;18.100;2023-12-20T02:17:58;72.93;;;34.60;;
84244;SDS011;74383;44.552;18.100;2023-12-20T02:20:24;66.85;;;31.67;;
84244;SDS011;74383;44.552;18.100;2023-12-20T02:22:49;62.95;;;31.35;;
84244;SDS011;74383;44.552;18.100;2023-12-20T02:25:40;67.03;;;31.50;;
84244;SDS011;74383;44.552;18.100;2023-12-20T02:28:06;69.18;;;32.33;;
84244;SDS011;74383;44.552;18.100;2023-12-20T02:30:32;71.22;;;31.58;;
84244;SDS011;74383;44.552;18.100;2023-12-20T02:32:58;69.10;;;31.50;;
84244;SDS011;74383;44.552;18.100;2023-12-20T02:35:25;60.30;;;29.48;;
84244;SDS011;74383;44.552;18.100;2023-12-20T02:37:50;66.00;;;30.92;;
84244;SDS011;74383;44.552;18.100;2023-12-20T02:40:16;62.33;;;29.13;;
84244;SDS011;74383;44.552;18.100;2023-12-20T02:42:42;65.90;;;28.27;;
84244;SDS011;74383;44.552;18.100;2023-12-20T02:45:07;58.33;;;28.77;;
84244;SDS011;74383;44.552;18.100;2023-12-20T02:47:33;54.65;;;26.77;;
84244;SDS011;74383;44.552;18.100;2023-12-20T02:49:58;58.38;;;26.92;;
84244;SDS011;74383;44.552;18.100;2023-12-20T02:52:24;52.03;;;27.15;;
84244;SDS011;74383;44.552;18.100;2023-12-20T02:54:50;55.55;;;26.60;;
84244;SDS011;74383;44.552;18.100;2023-12-20T02:57:16;49.67;;;25.38;;
84244;SDS011;74383;44.552;18.100;2023-12-20T02:59:41;45.85;;;24.42;;
84244;SDS011;74383;44.552;18.100;2023-12-20T03:02:07;36.05;;;19.92;;
84244;SDS011;74383;44.552;18.100;2023-12-20T03:04:32;39.85;;;22.85;;
84244;SDS011;74383;44.552;18.100;2023-12-20T03:06:58;38.05;;;21.77;;
84244;SDS011;74383;44.552;18.100;2023-12-20T03:09:23;37.70;;;21.15;;
84244;SDS011;74383;44.552;18.100;2023-12-20T03:11:49;38.53;;;21.42;;
84244;SDS011;74383;44.552;18.100;2023-12-20T03:14:15;39.03;;;21.33;;
84244;SDS011;74383;44.552;18.100;2023-12-20T03:16:40;35.00;;;20.92;;
84244;SDS011;74383;44.552;18.100;2023-12-20T03:19:06;39.17;;;20.65;;
84244;SDS011;74383;44.552;18.100;2023-12-20T03:21:31;40.22;;;21.73;;
84244;SDS011;74383;44.552;18.100;2023-12-20T03:23:57;38.30;;;20.65;;
84244;SDS011;74383;44.552;18.100;2023-12-20T03:26:22;46.20;;;22.90;;
84244;SDS011;74383;44.552;18.100;2023-12-20T03:28:48;38.33;;;21.85;;
84244;SDS011;74383;44.552;18.100;2023-12-20T03:31:14;38.00;;;21.13;;
84244;SDS011;74383;44.552;18.100;2023-12-20T03:33:39;40.90;;;21.02;;
84244;SDS011;74383;44.552;18.100;2023-12-20T03:36:05;38.38;;;20.95;;
84244;SDS011;74383;44.552;18.100;2023-12-20T03:38:31;41.05;;;21.15;;
84244;SDS011;74383;44.552;18.100;2023-12-20T03:40:56;38.22;;;20.30;;
84244;SDS011;74383;44.552;18.100;2023-12-20T03:43:22;41.75;;;22.70;;
84244;SDS011;74383;44.552;18.100;2023-12-20T03:45:48;38.80;;;21.00;;
84244;SDS011;74383;44.552;18.100;2023-12-20T03:48:13;41.45;;;22.40;;
84244;SDS011;74383;44.552;18.100;2023-12-20T03:50:39;52.28;;;27.92;;
84244;SDS011;74383;44.552;18.100;2023-12-20T03:53:04;51.53;;;28.35;;
84244;SDS011;74383;44.552;18.100;2023-12-20T03:55:30;52.10;;;30.85;;
84244;SDS011;74383;44.552;18.100;2023-12-20T03:57:55;57.67;;;31.05;;
84244;SDS011;74383;44.552;18.100;2023-12-20T04:00:21;45.22;;;25.10;;
84244;SDS011;74383;44.552;18.100;2023-12-20T04:02:46;49.47;;;24.92;;
84244;SDS011;74383;44.552;18.100;2023-12-20T04:05:12;46.75;;;25.50;;
84244;SDS011;74383;44.552;18.100;2023-12-20T04:07:38;53.55;;;28.33;;
84244;SDS011;74383;44.552;18.100;2023-12-20T04:10:04;52.30;;;26.17;;
84244;SDS011;74383;44.552;18.100;2023-12-20T04:12:30;52.15;;;25.77;;
84244;SDS011;74383;44.552;18.100;2023-12-20T04:14:56;54.55;;;26.48;;
84244;SDS011;74383;44.552;18.100;2023-12-20T04:17:22;57.72;;;26.35;;
84244;SDS011;74383;44.552;18.100;2023-12-20T04:19:48;53.97;;;26.70;;
84244;SDS011;74383;44.552;18.100;2023-12-20T04:22:14;65.00;;;28.50;;
84244;SDS011;74383;44.552;18.100;2023-12-20T04:24:40;47.85;;;24.83;;
84244;SDS011;74383;44.552;18.100;2023-12-20T04:27:07;53.55;;;25.27;;
84244;SDS011;74383;44.552;18.100;2023-12-20T04:29:33;50.22;;;24.98;;
84244;SDS011;74383;44.552;18.100;2023-12-20T04:31:59;54.05;;;26.00;;
84244;SDS011;74383;44.552;18.100;2023-12-20T04:34:25;55.30;;;29.50;;
84244;SDS011;74383;44.552;18.100;2023-12-20T04:36:51;46.60;;;24.48;;
84244;SDS011;74383;44.552;18.100;2023-12-20T04:39:16;55.13;;;26.50;;
84244;SDS011;74383;44.552;18.100;2023-12-20T04:41:42;50.13;;;26.35;;
84244;SDS011;74383;44.552;18.100;2023-12-20T04:44:08;71.88;;;33.13;;
84244;SDS011;74383;44.552;18.100;2023-12-20T04:46:33;94.50;;;40.53;;
84244;SDS011;74383;44.552;18.100;2023-12-20T04:48:59;101.55;;;41.90;;
84244;SDS011;74383;44.552;18.100;2023-12-20T04:51:24;69.10;;;32.25;;
84244;SDS011;74383;44.552;18.100;2023-12-20T04:53:50;68.30;;;30.80;;
84244;SDS011;74383;44.552;18.100;2023-12-20T04:56:15;66.75;;;31.73;;
84244;SDS011;74383;44.552;18.100;2023-12-20T04:58:42;67.60;;;31.88;;
84244;SDS011;74383;44.552;18.100;2023-12-20T05:01:08;64.70;;;32.28;;
84244;SDS011;74383;44.552;18.100;2023-12-20T05:03:34;71.90;;;32.42;;
84244;SDS011;74383;44.552;18.100;2023-12-20T05:05:59;64.28;;;31.30;;
84244;SDS011;74383;44.552;18.100;2023-12-20T05:08:25;70.53;;;31.48;;
84244;SDS011;74383;44.552;18.100;2023-12-20T05:10:51;61.67;;;29.52;;
84244;SDS011;74383;44.552;18.100;2023-12-20T05:13:19;63.13;;;31.48;;
84244;SDS011;74383;44.552;18.100;2023-12-20T05:15:44;65.85;;;31.83;;
84244;SDS011;74383;44.552;18.100;2023-12-20T05:18:10;72.63;;;34.67;;
84244;SDS011;74383;44.552;18.100;2023-12-20T05:20:35;71.70;;;36.28;;
84244;SDS011;74383;44.552;18.100;2023-12-20T05:23:01;72.60;;;36.25;;
84244;SDS011;74383;44.552;18.100;2023-12-20T05:25:27;66.63;;;35.05;;
84244;SDS011;74383;44.552;18.100;2023-12-20T05:27:52;80.82;;;41.35;;
84244;SDS011;74383;44.552;18.100;2023-12-20T05:30:18;80.78;;;40.22;;
84244;SDS011;74383;44.552;18.100;2023-12-20T05:32:43;94.97;;;43.65;;
84244;SDS011;74383;44.552;18.100;2023-12-20T05:35:09;90.53;;;46.25;;
84244;SDS011;74383;44.552;18.100;2023-12-20T05:37:35;88.95;;;44.13;;
84244;SDS011;74383;44.552;18.100;2023-12-20T05:40:00;85.25;;;41.65;;
84244;SDS011;74383;44.552;18.100;2023-12-20T05:42:26;75.50;;;40.55;;
84244;SDS011;74383;44.552;18.100;2023-12-20T05:44:52;93.30;;;44.67;;
84244;SDS011;74383;44.552;18.100;2023-12-20T05:47:17;84.53;;;44.15;;
84244;SDS011;74383;44.552;18.100;2023-12-20T05:49:43;80.85;;;40.95;;
84244;SDS011;74383;44.552;18.100;2023-12-20T05:52:09;88.00;;;43.08;;
84244;SDS011;74383;44.552;18.100;2023-12-20T05:54:35;88.68;;;44.97;;
84244;SDS011;74383;44.552;18.100;2023-12-20T05:57:00;94.15;;;45.30;;
84244;SDS011;74383;44.552;18.100;2023-12-20T05:59:26;79.32;;;42.63;;
84244;SDS011;74383;44.552;18.100;2023-12-20T06:01:51;59.75;;;29.60;;
84244;SDS011;74383;44.552;18.100;2023-12-20T06:04:17;67.05;;;33.50;;
84244;SDS011;74383;44.552;18.100;2023-12-20T06:06:43;71.03;;;35.60;;
84244;SDS011;74383;44.552;18.100;2023-12-20T06:09:09;75.95;;;39.40;;
84244;SDS011;74383;44.552;18.100;2023-12-20T06:11:35;80.07;;;40.00;;
84244;SDS011;74383;44.552;18.100;2023-12-20T06:14:03;88.30;;;42.03;;
84244;SDS011;74383;44.552;18.100;2023-12-20T06:16:29;57.63;;;31.10;;
84244;SDS011;74383;44.552;18.100;2023-12-20T06:18:55;64.30;;;32.90;;
84244;SDS011;74383;44.552;18.100;2023-12-20T06:21:22;62.25;;;31.70;;
84244;SDS011;74383;44.552;18.100;2023-12-20T06:23:47;62.72;;;33.35;;
84244;SDS011;74383;44.552;18.100;2023-12-20T06:26:13;65.35;;;37.45;;
84244;SDS011;74383;44.552;18.100;2023-12-20T06:28:39;73.88;;;38.03;;
84244;SDS011;74383;44.552;18.100;2023-12-20T06:31:04;72.70;;;38.85;;
84244;SDS011;74383;44.552;18.100;2023-12-20T06:33:30;75.47;;;36.80;;
84244;SDS011;74383;44.552;18.100;2023-12-20T06:35:56;74.30;;;37.80;;
84244;SDS011;74383;44.552;18.100;2023-12-20T06:38:22;75.60;;;40.10;;
84244;SDS011;74383;44.552;18.100;2023-12-20T06:40:48;85.85;;;44.42;;
84244;SDS011;74383;44.552;18.100;2023-12-20T06:43:14;96.57;;;45.95;;
84244;SDS011;74383;44.552;18.100;2023-12-20T06:45:39;91.75;;;41.53;;
84244;SDS011;74383;44.552;18.100;2023-12-20T06:48:05;78.93;;;40.10;;
84244;SDS011;74383;44.552;18.100;2023-12-20T06:50:31;92.35;;;41.72;;
84244;SDS011;74383;44.552;18.100;2023-12-20T06:52:58;94.18;;;44.58;;
84244;SDS011;74383;44.552;18.100;2023-12-20T06:55:23;100.03;;;46.92;;
84244;SDS011;74383;44.552;18.100;2023-12-20T06:57:49;103.68;;;48.85;;
84244;SDS011;74383;44.552;18.100;2023-12-20T07:00:15;100.85;;;46.63;;
84244;SDS011;74383;44.552;18.100;2023-12-20T07:02:40;103.82;;;47.40;;
84244;SDS011;74383;44.552;18.100;2023-12-20T07:05:06;105.00;;;49.65;;
84244;SDS011;74383;44.552;18.100;2023-12-20T07:07:32;104.88;;;50.33;;
84244;SDS011;74383;44.552;18.100;2023-12-20T07:09:58;109.55;;;49.63;;
84244;SDS011;74383;44.552;18.100;2023-12-20T07:12:23;115.15;;;51.63;;
84244;SDS011;74383;44.552;18.100;2023-12-20T07:14:49;135.15;;;61.55;;
84244;SDS011;74383;44.552;18.100;2023-12-20T07:17:15;119.65;;;54.38;;
84244;SDS011;74383;44.552;18.100;2023-12-20T07:19:41;111.53;;;49.90;;
84244;SDS011;74383;44.552;18.100;2023-12-20T07:22:07;99.10;;;48.50;;
84244;SDS011;74383;44.552;18.100;2023-12-20T07:24:33;136.23;;;58.20;;
84244;SDS011;74383;44.552;18.100;2023-12-20T07:27:00;156.63;;;68.55;;
84244;SDS011;74383;44.552;18.100;2023-12-20T07:29:26;149.60;;;67.20;;
84244;SDS011;74383;44.552;18.100;2023-12-20T07:31:54;95.50;;;45.90;;
84244;SDS011;74383;44.552;18.100;2023-12-20T07:34:20;96.45;;;47.35;;
84244;SDS011;74383;44.552;18.100;2023-12-20T07:36:49;118.85;;;56.72;;
84244;SDS011;74383;44.552;18.100;2023-12-20T07:39:16;118.53;;;55.85;;
84244;SDS011;74383;44.552;18.100;2023-12-20T07:41:41;122.22;;;60.70;;
84244;SDS011;74383;44.552;18.100;2023-12-20T07:44:07;103.30;;;51.30;;
84244;SDS011;74383;44.552;18.100;2023-12-20T07:46:33;94.22;;;53.15;;
84244;SDS011;74383;44.552;18.100;2023-12-20T07:48:58;140.50;;;71.53;;
84244;SDS011;74383;44.552;18.100;2023-12-20T07:51:24;152.68;;;72.30;;
84244;SDS011;74383;44.552;18.100;2023-12-20T07:53:51;143.85;;;73.60;;
84244;SDS011;74383;44.552;18.100;2023-12-20T07:56:17;136.63;;;68.63;;
84244;SDS011;74383;44.552;18.100;2023-12-20T07:58:44;161.82;;;75.78;;
84244;SDS011;74383;44.552;18.100;2023-12-20T08:01:10;161.88;;;80.90;;
84244;SDS011;74383;44.552;18.100;2023-12-20T08:03:37;181.98;;;85.07;;
84244;SDS011;74383;44.552;18.100;2023-12-20T08:06:03;170.63;;;77.35;;
84244;SDS011;74383;44.552;18.100;2023-12-20T08:08:28;162.45;;;72.13;;
84244;SDS011;74383;44.552;18.100;2023-12-20T08:10:54;154.27;;;71.82;;
84244;SDS011;74383;44.552;18.100;2023-12-20T08:13:20;140.32;;;63.10;;
84244;SDS011;74383;44.552;18.100;2023-12-20T08:15:50;126.03;;;59.35;;
84244;SDS011;74383;44.552;18.100;2023-12-20T08:18:15;121.88;;;52.75;;
84244;SDS011;74383;44.552;18.100;2023-12-20T08:20:41;101.97;;;49.08;;
84244;SDS011;74383;44.552;18.100;2023-12-20T08:23:07;108.93;;;49.00;;
84244;SDS011;74383;44.552;18.100;2023-12-20T08:25:32;125.78;;;58.05;;
84244;SDS011;74383;44.552;18.100;2023-12-20T08:27:58;118.72;;;52.47;;
84244;SDS011;74383;44.552;18.100;2023-12-20T08:30:23;118.53;;;55.00;;
84244;SDS011;74383;44.552;18.100;2023-12-20T08:32:50;128.55;;;58.47;;
84244;SDS011;74383;44.552;18.100;2023-12-20T08:35:16;120.10;;;58.92;;
84244;SDS011;74383;44.552;18.100;2023-12-20T08:37:43;117.30;;;57.22;;
84244;SDS011;74383;44.552;18.100;2023-12-20T08:40:08;171.68;;;82.95;;
84244;SDS011;74383;44.552;18.100;2023-12-20T08:42:34;167.68;;;83.85;;
84244;SDS011;74383;44.552;18.100;2023-12-20T08:45:00;124.28;;;59.50;;
84244;SDS011;74383;44.552;18.100;2023-12-20T08:47:26;126.28;;;59.58;;
84244;SDS011;74383;44.552;18.100;2023-12-20T08:49:52;128.63;;;61.42;;
84244;SDS011;74383;44.552;18.100;2023-12-20T08:52:25;128.18;;;62.60;;
84244;SDS011;74383;44.552;18.100;2023-12-20T08:54:54;130.93;;;65.70;;
84244;SDS011;74383;44.552;18.100;2023-12-20T08:57:20;113.78;;;59.30;;
84244;SDS011;74383;44.552;18.100;2023-12-20T08:59:46;108.03;;;57.17;;
84244;SDS011;74383;44.552;18.100;2023-12-20T09:02:13;87.07;;;47.70;;
84244;SDS011;74383;44.552;18.100;2023-12-20T09:04:39;82.97;;;42.30;;
84244;SDS011;74383;44.552;18.100;2023-12-20T09:07:05;107.88;;;54.97;;
84244;SDS011;74383;44.552;18.100;2023-12-20T09:09:31;88.72;;;49.40;;
84244;SDS011;74383;44.552;18.100;2023-12-20T09:11:57;105.45;;;50.13;;
84244;SDS011;74383;44.552;18.100;2023-12-20T09:14:23;114.55;;;53.67;;
84244;SDS011;74383;44.552;18.100;2023-12-20T09:16:49;124.22;;;59.78;;
84244;SDS011;74383;44.552;18.100;2023-12-20T09:19:19;119.00;;;59.85;;
84244;SDS011;74383;44.552;18.100;2023-12-20T09:21:44;107.88;;;54.45;;
84244;SDS011;74383;44.552;18.100;2023-12-20T09:24:10;108.20;;;53.70;;
84244;SDS011;74383;44.552;18.100;2023-12-20T09:26:36;106.20;;;56.83;;
84244;SDS011;74383;44.552;18.100;2023-12-20T09:29:02;102.53;;;57.00;;
84244;SDS011;74383;44.552;18.100;2023-12-20T09:31:27;126.38;;;88.78;;
84244;SDS011;74383;44.552;18.100;2023-12-20T09:33:53;120.18;;;78.03;;
84244;SDS011;74383;44.552;18.100;2023-12-20T09:36:19;97.10;;;61.58;;
84244;SDS011;74383;44.552;18.100;2023-12-20T09:38:44;102.30;;;66.80;;
84244;SDS011;74383;44.552;18.100;2023-12-20T09:41:36;117.03;;;77.22;;
84244;SDS011;74383;44.552;18.100;2023-12-20T09:44:07;102.05;;;60.58;;
84244;SDS011;74383;44.552;18.100;2023-12-20T09:46:38;94.20;;;55.97;;
84244;SDS011;74383;44.552;18.100;2023-12-20T09:49:07;93.28;;;54.38;;
84244;SDS011;74383;44.552;18.100;2023-12-20T09:51:34;94.72;;;53.20;;
84244;SDS011;74383;44.552;18.100;2023-12-20T09:54:02;102.82;;;55.63;;
84244;SDS011;74383;44.552;18.100;2023-12-20T09:56:29;94.82;;;54.88;;
84244;SDS011;74383;44.552;18.100;2023-12-20T09:58:55;101.30;;;55.45;;
84244;SDS011;74383;44.552;18.100;2023-12-20T10:01:21;93.72;;;52.72;;
84244;SDS011;74383;44.552;18.100;2023-12-20T10:03:48;102.00;;;52.58;;
84244;SDS011;74383;44.552;18.100;2023-12-20T10:06:16;85.78;;;50.17;;
84244;SDS011;74383;44.552;18.100;2023-12-20T10:08:42;95.97;;;52.08;;
84244;SDS011;74383;44.552;18.100;2023-12-20T10:11:08;84.55;;;48.40;;
84244;SDS011;74383;44.552;18.100;2023-12-20T10:13:34;105.18;;;57.78;;
84244;SDS011;74383;44.552;18.100;2023-12-20T10:16:06;89.82;;;47.47;;
84244;SDS011;74383;44.552;18.100;2023-12-20T10:18:32;94.80;;;52.08;;
84244;SDS011;74383;44.552;18.100;2023-12-20T10:20:58;101.05;;;56.53;;
84244;SDS011;74383;44.552;18.100;2023-12-20T10:23:26;113.60;;;61.30;;
84244;SDS011;74383;44.552;18.100;2023-12-20T10:26:19;83.72;;;48.97;;
84244;SDS011;74383;44.552;18.100;2023-12-20T10:28:56;74.93;;;44.85;;
84244;SDS011;74383;44.552;18.100;2023-12-20T10:31:33;74.88;;;45.97;;
84244;SDS011;74383;44.552;18.100;2023-12-20T10:34:00;94.70;;;53.25;;
84244;SDS011;74383;44.552;18.100;2023-12-20T10:36:28;91.70;;;52.72;;
84244;SDS011;74383;44.552;18.100;2023-12-20T10:38:55;77.20;;;45.22;;
84244;SDS011;74383;44.552;18.100;2023-12-20T10:43:55;59.13;;;33.88;;
84244;SDS011;74383;44.552;18.100;2023-12-20T10:46:23;44.60;;;26.75;;
84244;SDS011;74383;44.552;18.100;2023-12-20T10:48:52;62.53;;;34.13;;
84244;SDS011;74383;44.552;18.100;2023-12-20T10:51:19;88.00;;;49.08;;
84244;SDS011;74383;44.552;18.100;2023-12-20T10:53:49;89.03;;;47.45;;
84244;SDS011;74383;44.552;18.100;2023-12-20T10:56:16;74.35;;;40.33;;
84244;SDS011;74383;44.552;18.100;2023-12-20T10:58:43;119.10;;;64.63;;
84244;SDS011;74383;44.552;18.100;2023-12-20T11:01:11;115.80;;;67.85;;
84244;SDS011;74383;44.552;18.100;2023-12-20T11:03:53;106.05;;;55.17;;
84244;SDS011;74383;44.552;18.100;2023-12-20T11:06:41;121.25;;;68.95;;
84244;SDS011;74383;44.552;18.100;2023-12-20T11:09:26;120.18;;;66.25;;
84244;SDS011;74383;44.552;18.100;2023-12-20T11:17:05;92.53;;;52.00;;
84244;SDS011;74383;44.552;18.100;2023-12-20T11:22:30;122.80;;;70.00;;
84244;SDS011;74383;44.552;18.100;2023-12-20T11:25:15;109.63;;;63.17;;
84244;SDS011;74383;44.552;18.100;2023-12-20T11:27:41;99.03;;;53.50;;
84244;SDS011;74383;44.552;18.100;2023-12-20T11:30:10;105.80;;;55.67;;
84244;SDS011;74383;44.552;18.100;2023-12-20T11:32:36;122.95;;;69.55;;
84244;SDS011;74383;44.552;18.100;2023-12-20T11:37:37;110.57;;;62.60;;
84244;SDS011;74383;44.552;18.100;2023-12-20T11:40:08;111.97;;;62.85;;
84244;SDS011;74383;44.552;18.100;2023-12-20T11:43:10;80.28;;;46.78;;
84244;SDS011;74383;44.552;18.100;2023-12-20T11:45:31;98.22;;;54.95;;
84244;SDS011;74383;44.552;18.100;2023-12-20T11:47:57;117.55;;;66.13;;
84244;SDS011;74383;44.552;18.100;2023-12-20T11:50:23;137.63;;;77.07;;
84244;SDS011;74383;44.552;18.100;2023-12-20T11:52:51;128.25;;;73.70;;
84244;SDS011;74383;44.552;18.100;2023-12-20T11:55:18;180.65;;;96.25;;
84244;SDS011;74383;44.552;18.100;2023-12-20T11:57:44;158.98;;;88.18;;
84244;SDS011;74383;44.552;18.100;2023-12-20T12:00:13;173.35;;;92.82;;
84244;SDS011;74383;44.552;18.100;2023-12-20T12:02:39;175.60;;;97.88;;
84244;SDS011;74383;44.552;18.100;2023-12-20T12:05:05;156.32;;;91.72;;
84244;SDS011;74383;44.552;18.100;2023-12-20T12:07:32;166.07;;;93.70;;
84244;SDS011;74383;44.552;18.100;2023-12-20T12:09:59;139.45;;;80.60;;
84244;SDS011;74383;44.552;18.100;2023-12-20T12:12:24;139.00;;;78.15;;
84244;SDS011;74383;44.552;18.100;2023-12-20T12:14:53;113.55;;;62.00;;
84244;SDS011;74383;44.552;18.100;2023-12-20T12:17:20;142.98;;;78.68;;
84244;SDS011;74383;44.552;18.100;2023-12-20T12:19:45;159.93;;;90.72;;
84244;SDS011;74383;44.552;18.100;2023-12-20T12:22:14;164.07;;;89.95;;
84244;SDS011;74383;44.552;18.100;2023-12-20T12:24:42;166.30;;;95.07;;
84244;SDS011;74383;44.552;18.100;2023-12-20T12:27:09;163.85;;;92.90;;
84244;SDS011;74383;44.552;18.100;2023-12-20T12:29:36;140.05;;;78.07;;
84244;SDS011;74383;44.552;18.100;2023-12-20T12:32:06;179.75;;;97.50;;
84244;SDS011;74383;44.552;18.100;2023-12-20T12:34:33;186.75;;;101.72;;
84244;SDS011;74383;44.552;18.100;2023-12-20T12:37:00;196.90;;;107.68;;
84244;SDS011;74383;44.552;18.100;2023-12-20T12:39:25;179.23;;;102.13;;
84244;SDS011;74383;44.552;18.100;2023-12-20T12:41:51;198.63;;;103.57;;
84244;SDS011;74383;44.552;18.100;2023-12-20T12:44:17;169.07;;;100.85;;
84244;SDS011;74383;44.552;18.100;2023-12-20T12:46:44;165.45;;;96.65;;
84244;SDS011;74383;44.552;18.100;2023-12-20T12:49:16;166.70;;;95.25;;
84244;SDS011;74383;44.552;18.100;2023-12-20T12:51:42;163.55;;;92.88;;
84244;SDS011;74383;44.552;18.100;2023-12-20T12:54:09;141.05;;;80.25;;
84244;SDS011;74383;44.552;18.100;2023-12-20T12:56:35;158.98;;;90.80;;
84244;SDS011;74383;44.552;18.100;2023-12-20T12:59:01;147.27;;;87.55;;
84244;SDS011;74383;44.552;18.100;2023-12-20T13:01:27;136.57;;;81.72;;
84244;SDS011;74383;44.552;18.100;2023-12-20T13:03:53;131.07;;;75.75;;
84244;SDS011;74383;44.552;18.100;2023-12-20T13:06:19;114.47;;;66.90;;
84244;SDS011;74383;44.552;18.100;2023-12-20T13:08:45;119.90;;;69.47;;
84244;SDS011;74383;44.552;18.100;2023-12-20T13:11:10;112.13;;;66.40;;
84244;SDS011;74383;44.552;18.100;2023-12-20T13:13:36;133.60;;;73.75;;
84244;SDS011;74383;44.552;18.100;2023-12-20T13:16:02;127.18;;;72.93;;
84244;SDS011;74383;44.552;18.100;2023-12-20T13:18:27;163.82;;;90.88;;
84244;SDS011;74383;44.552;18.100;2023-12-20T13:20:53;121.85;;;64.32;;
84244;SDS011;74383;44.552;18.100;2023-12-20T13:23:19;69.63;;;37.40;;
84244;SDS011;74383;44.552;18.100;2023-12-20T13:25:45;62.15;;;32.97;;
84244;SDS011;74383;44.552;18.100;2023-12-20T13:28:12;61.10;;;32.88;;
84244;SDS011;74383;44.552;18.100;2023-12-20T13:30:38;61.63;;;34.60;;
84244;SDS011;74383;44.552;18.100;2023-12-20T13:33:04;64.13;;;33.97;;
84244;SDS011;74383;44.552;18.100;2023-12-20T13:35:30;63.67;;;32.65;;
84244;SDS011;74383;44.552;18.100;2023-12-20T13:37:57;63.08;;;34.90;;
84244;SDS011;74383;44.552;18.100;2023-12-20T13:40:26;67.40;;;35.80;;
84244;SDS011;74383;44.552;18.100;2023-12-20T13:42:51;72.97;;;37.75;;
84244;SDS011;74383;44.552;18.100;2023-12-20T13:45:17;72.95;;;38.55;;
84244;SDS011;74383;44.552;18.100;2023-12-20T13:47:43;69.93;;;37.45;;
84244;SDS011;74383;44.552;18.100;2023-12-20T13:50:09;67.05;;;34.92;;
84244;SDS011;74383;44.552;18.100;2023-12-20T13:52:35;71.28;;;35.42;;
84244;SDS011;74383;44.552;18.100;2023-12-20T13:55:01;72.28;;;36.42;;
84244;SDS011;74383;44.552;18.100;2023-12-20T13:57:27;71.95;;;35.97;;
84244;SDS011;74383;44.552;18.100;2023-12-20T13:59:55;74.25;;;37.40;;
84244;SDS011;74383;44.552;18.100;2023-12-20T14:02:23;68.20;;;36.58;;
84244;SDS011;74383;44.552;18.100;2023-12-20T14:04:48;74.55;;;38.45;;
84244;SDS011;74383;44.552;18.100;2023-12-20T14:07:14;75.75;;;41.10;;
84244;SDS011;74383;44.552;18.100;2023-12-20T14:09:40;81.40;;;41.63;;
84244;SDS011;74383;44.552;18.100;2023-12-20T14:12:14;80.00;;;39.28;;
84244;SDS011;74383;44.552;18.100;2023-12-20T14:14:39;71.95;;;37.15;;
84244;SDS011;74383;44.552;18.100;2023-12-20T14:17:05;72.88;;;39.17;;